Time;durP1;ratioP1;P1;durP2;ratioP2;P2;SDS_P1;SDS_P2;PMS_P1;PMS_P2;Temp;Humidity;BMP_temperature;BMP_pressure;BME280_temperature;BME280_humidity;BME280_pressure;Samples;Min_cycle;Max_cycle;Signal;HPM_P1;HPM_P2
2022/07/29 00:01:36;;;;;;;5.00;3.03;;;;;;;23.77;49.37;99748.03;4244664;33;35921;-81
2022/07/29 00:04:23;;;;;;;4.62;3.45;;;;;;;23.48;50.08;99740.75;4245269;33;35082;-83
2022/07/29 00:07:09;;;;;;;7.37;3.22;;;;;;;23.58;49.98;99740.00;4245358;33;34623;-82
2022/07/29 00:09:57;;;;;;;4.55;3.05;;;;;;;23.75;49.88;99735.66;4244923;33;34305;-82
2022/07/29 00:12:44;;;;;;;5.35;3.12;;;;;;;23.91;48.89;99736.06;4243055;33;34532;-82
2022/07/29 00:15:32;;;;;;;7.22;3.15;;;;;;;23.73;49.88;99752.81;4242553;33;35159;-82
2022/07/29 00:18:18;;;;;;;5.07;3.12;;;;;;;23.75;49.20;99739.25;4234064;33;34822;-82
2022/07/29 00:21:04;;;;;;;7.50;3.60;;;;;;;24.01;48.11;99740.06;4244038;33;34092;-83
2022/07/29 00:23:51;;;;;;;4.95;3.53;;;;;;;23.79;49.32;99744.84;4244330;33;35281;-82
2022/07/29 00:26:37;;;;;;;7.28;3.60;;;;;;;23.63;51.07;99744.41;4244130;33;35678;-82
2022/07/29 00:29:23;;;;;;;6.57;3.30;;;;;;;23.87;49.79;99743.66;4232453;33;35703;-83
2022/07/29 00:32:20;;;;;;;6.28;3.70;;;;;;;24.02;49.20;99742.47;4242953;33;35351;-82
2022/07/29 00:38:13;;;;;;;6.57;3.72;;;;;;;24.16;48.89;99746.44;4243300;33;35564;-83
2022/07/29 00:40:59;;;;;;;6.30;3.12;;;;;;;24.30;47.84;99752.03;4242858;33;33470;-82
2022/07/29 00:43:46;;;;;;;7.00;3.50;;;;;;;24.08;48.44;99742.87;4242537;33;33819;-83
2022/07/29 00:46:32;;;;;;;6.72;3.80;;;;;;;24.07;48.93;99738.47;4242051;33;34128;-82
2022/07/29 00:49:18;;;;;;;6.90;3.58;;;;;;;24.27;48.53;99740.84;4243073;33;35079;-82
2022/07/29 00:52:05;;;;;;;6.05;3.40;;;;;;;24.24;48.41;99736.84;4242540;33;35510;-82
2022/07/29 00:54:52;;;;;;;4.65;3.33;;;;;;;24.36;47.87;99736.47;4241838;33;34720;-82
2022/07/29 00:57:40;;;;;;;5.85;3.65;;;;;;;24.37;47.66;99731.66;4231395;33;34601;-82
2022/07/29 01:00:27;;;;;;;7.32;3.72;;;;;;;24.50;47.67;99740.44;4241686;33;35865;-82
2022/07/29 01:03:14;;;;;;;5.07;3.80;;;;;;;24.27;47.93;99741.66;4231891;33;35549;-82
2022/07/29 01:06:01;;;;;;;6.50;3.75;;;;;;;24.48;47.19;99734.44;4242945;33;34818;-82
2022/07/29 01:08:48;;;;;;;6.70;3.55;;;;;;;24.40;47.56;99737.25;4242268;33;34749;-82
2022/07/29 01:11:35;;;;;;;6.10;3.40;;;;;;;24.42;46.75;99732.03;4235210;33;34866;-83
2022/07/29 01:14:22;;;;;;;6.82;3.80;;;;;;;24.51;47.45;99734.44;4242460;33;34385;-82
2022/07/29 01:17:25;;;;;;;8.73;3.90;;;;;;;24.61;47.04;99730.81;4242717;33;33977;-82
2022/07/29 01:20:32;;;;;;;8.60;4.10;;;;;;;24.48;47.09;99728.84;4242864;33;35515;-82
2022/07/29 01:23:28;;;;;;;6.70;3.50;;;;;;;24.05;48.10;99726.87;4242346;33;36000;-82
2022/07/29 01:26:48;;;;;;;7.55;4.18;;;;;;;24.15;47.82;99734.47;4242592;33;34583;-83
2022/07/29 01:29:41;;;;;;;7.93;3.75;;;;;;;24.14;48.17;99732.88;4231132;33;34279;-82
2022/07/29 01:32:36;;;;;;;7.50;3.50;;;;;;;24.39;47.14;99732.84;4242614;33;34356;-82
2022/07/29 01:35:25;;;;;;;4.90;3.80;;;;;;;24.43;46.64;99732.88;4241691;33;34444;-82
2022/07/29 01:38:24;;;;;;;6.28;3.60;;;;;;;24.57;46.54;99730.03;4241605;33;34714;-82
2022/07/29 01:41:15;;;;;;;4.90;4.10;;;;;;;24.59;46.86;99730.44;4241702;33;34969;-82
2022/07/29 01:44:20;;;;;;;5.83;3.60;;;;;;;24.29;47.31;99727.25;4241301;33;35564;-82
2022/07/29 01:47:12;;;;;;;5.57;3.87;;;;;;;24.65;46.34;99728.03;4231410;33;34526;-83
2022/07/29 01:50:00;;;;;;;5.03;3.65;;;;;;;24.57;46.61;99724.44;4231657;33;34603;-83
2022/07/29 01:52:59;;;;;;;7.00;3.50;;;;;;;24.16;48.06;99721.25;4230228;33;32797;-83
2022/07/29 01:55:45;;;;;;;5.65;3.65;;;;;;;24.32;47.23;99716.03;4240983;33;34716;-82
2022/07/29 01:58:32;;;;;;;6.35;3.47;;;;;;;24.37;47.18;99717.66;4241048;33;34988;-82
2022/07/29 02:01:20;;;;;;;6.18;4.10;;;;;;;24.39;47.18;99720.81;4241441;33;35504;-82
2022/07/29 02:04:09;;;;;;;6.05;4.37;;;;;;;24.43;47.09;99722.47;4230805;33;33774;-82
2022/07/29 02:06:59;;;;;;;7.28;3.85;;;;;;;24.36;47.87;99724.44;4238576;33;104371;-83
2022/07/29 02:09:47;;;;;;;6.87;4.00;;;;;;;24.42;47.50;99722.84;4232238;33;34913;-82
2022/07/29 02:12:35;;;;;;;6.95;4.03;;;;;;;24.15;48.07;99723.25;4242079;33;34679;-82
2022/07/29 02:15:23;;;;;;;4.75;3.92;;;;;;;24.11;48.69;99728.06;4242469;33;33341;-83
2022/07/29 02:18:17;;;;;;;7.25;4.00;;;;;;;24.24;47.61;99720.84;4241586;33;35431;-83
2022/07/29 02:21:04;;;;;;;6.05;3.78;;;;;;;24.28;47.61;99720.03;4241901;33;34700;-82
2022/07/29 02:24:01;;;;;;;6.62;4.07;;;;;;;24.26;48.03;99711.25;4241935;33;35805;-82
2022/07/29 02:26:49;;;;;;;9.45;4.03;;;;;;;24.18;47.66;99714.06;4232026;33;35277;-83
2022/07/29 02:29:37;;;;;;;5.07;3.90;;;;;;;24.13;48.20;99708.84;4231052;33;34539;-82
2022/07/29 02:32:24;;;;;;;8.82;3.92;;;;;;;24.07;48.39;99718.87;4242307;33;35972;-82
2022/07/29 02:35:13;;;;;;;6.90;4.20;;;;;;;24.04;48.43;99711.28;4225301;33;35335;-82
2022/07/29 02:41:11;;;;;;;5.57;3.60;;;;;;;23.97;48.81;99705.69;4243022;33;34388;-82
2022/07/29 02:44:02;;;;;;;9.63;4.68;;;;;;;23.96;49.12;99709.66;4232643;33;34801;-82
2022/07/29 02:46:59;;;;;;;4.93;3.87;;;;;;;24.01;49.12;99709.28;4242757;33;34643;-82
2022/07/29 02:49:53;;;;;;;7.05;4.12;;;;;;;24.01;48.89;99701.66;4242722;33;34800;-82
2022/07/29 02:52:43;;;;;;;5.40;4.05;;;;;;;24.21;48.63;99704.84;4243764;33;34640;-82
2022/07/29 02:55:56;;;;;;;7.10;3.87;;;;;;;24.13;48.54;99710.87;4228325;33;35979;-82
2022/07/29 02:58:47;;;;;;;5.72;4.10;;;;;;;24.01;48.68;99710.06;4232987;33;33336;-82
2022/07/29 03:01:34;;;;;;;6.07;4.18;;;;;;;24.18;48.07;99700.06;4232805;33;33810;-82
2022/07/29 03:04:22;;;;;;;8.23;4.43;;;;;;;24.15;48.44;99705.66;4242943;33;34323;-82
2022/07/29 03:07:11;;;;;;;5.15;3.70;;;;;;;23.96;48.75;99706.88;4233072;33;35023;-82
2022/07/29 03:09:57;;;;;;;5.20;3.83;;;;;;;24.22;48.37;99700.88;4241334;33;36107;-81
2022/07/29 03:12:44;;;;;;;8.13;4.40;;;;;;;24.27;48.32;99710.06;4242635;33;34060;-81
2022/07/29 03:15:30;;;;;;;6.87;4.20;;;;;;;24.19;48.48;99712.88;4232897;33;34661;-82
2022/07/29 03:18:17;;;;;;;8.48;4.50;;;;;;;24.11;48.33;99707.69;4232693;33;34486;-81
2022/07/29 03:21:03;;;;;;;5.03;4.03;;;;;;;24.03;49.04;99709.69;4242373;33;34547;-82
2022/07/29 03:23:50;;;;;;;7.12;4.22;;;;;;;23.99;48.73;99708.88;4232719;33;34312;-82
2022/07/29 03:26:37;;;;;;;7.43;4.20;;;;;;;23.68;49.78;99711.25;4241531;33;34624;-81
2022/07/29 03:29:24;;;;;;;7.00;4.10;;;;;;;24.04;49.07;99704.88;4233759;33;35040;-82
2022/07/29 03:32:18;;;;;;;6.90;4.25;;;;;;;23.92;49.57;99711.69;4247184;33;34602;-78
2022/07/29 03:35:10;;;;;;;7.35;4.22;;;;;;;23.97;48.89;99711.28;4246090;33;34287;-77
2022/07/29 03:37:56;;;;;;;7.62;4.70;;;;;;;24.09;48.81;99719.28;4246692;33;35483;-78
2022/07/29 03:40:48;;;;;;;6.80;4.47;;;;;;;24.05;49.14;99715.69;4235953;33;35136;-78
2022/07/29 03:43:37;;;;;;;7.78;4.47;;;;;;;23.99;48.84;99715.28;4236225;33;34709;-77
2022/07/29 03:46:35;;;;;;;7.82;4.35;;;;;;;23.99;49.08;99711.66;4237455;33;34191;-77
2022/07/29 03:49:23;;;;;;;6.57;4.18;;;;;;;24.07;48.75;99721.66;4246234;33;34701;-77
2022/07/29 03:52:10;;;;;;;6.15;4.35;;;;;;;24.10;48.93;99720.06;4246166;33;35106;-78
2022/07/29 03:54:56;;;;;;;7.78;4.57;;;;;;;24.03;49.01;99706.88;4245100;33;34642;-78
2022/07/29 03:57:44;;;;;;;5.65;3.95;;;;;;;24.03;49.26;99712.47;4246454;33;35156;-78
2022/07/29 04:00:31;;;;;;;5.45;4.03;;;;;;;23.94;49.31;99718.47;4235830;33;34661;-78
2022/07/29 04:03:17;;;;;;;6.12;4.45;;;;;;;23.93;49.51;99710.47;4246571;33;35961;-78
2022/07/29 04:06:06;;;;;;;7.50;4.40;;;;;;;23.99;49.79;99725.66;4247010;33;35617;-78
2022/07/29 04:08:52;;;;;;;6.47;4.40;;;;;;;24.00;50.01;99718.87;4235840;33;34094;-78
2022/07/29 04:11:40;;;;;;;5.80;4.30;;;;;;;23.98;49.88;99721.28;4245436;33;34698;-78
2022/07/29 04:14:46;;;;;;;8.40;4.18;;;;;;;23.88;49.45;99725.69;4229656;33;35001;-78
2022/07/29 04:17:33;;;;;;;7.15;4.10;;;;;;;24.09;49.66;99729.66;4246081;33;34913;-78
2022/07/29 04:20:20;;;;;;;6.53;4.07;;;;;;;23.99;50.13;99732.06;4246497;33;35232;-78
2022/07/29 04:23:06;;;;;;;6.78;4.00;;;;;;;23.95;50.18;99722.06;4246308;33;34778;-78
2022/07/29 04:25:53;;;;;;;8.63;4.45;;;;;;;23.98;50.01;99721.28;4246034;33;35078;-77
2022/07/29 04:28:40;;;;;;;7.07;4.50;;;;;;;23.97;50.15;99722.47;4245980;33;34678;-78
2022/07/29 04:31:27;;;;;;;8.35;4.37;;;;;;;24.01;49.78;99720.47;4245325;33;34159;-78
2022/07/29 04:34:13;;;;;;;9.23;4.43;;;;;;;23.98;49.79;99724.06;4235318;33;34682;-78
2022/07/29 04:37:00;;;;;;;6.95;3.72;;;;;;;23.99;50.22;99728.47;4246248;33;34982;-78
2022/07/29 04:39:46;;;;;;;8.85;4.30;;;;;;;23.90;50.21;99726.06;4246124;33;34578;-78
2022/07/29 04:42:33;;;;;;;7.80;4.20;;;;;;;24.17;49.85;99725.66;4245283;33;34205;-78
2022/07/29 04:45:28;;;;;;;5.82;4.43;;;;;;;24.20;49.22;99724.88;4234749;33;35587;-78
2022/07/29 04:48:15;;;;;;;8.73;4.85;;;;;;;24.10;49.54;99731.25;4245587;33;34997;-78
2022/07/29 04:51:01;;;;;;;6.47;4.15;;;;;;;23.95;50.46;99725.66;4234959;33;34566;-78
2022/07/29 04:53:48;;;;;;;8.38;4.22;;;;;;;24.48;49.11;99732.47;4243285;33;35053;-78
2022/07/29 04:56:34;;;;;;;6.55;4.20;;;;;;;24.37;49.33;99726.84;4244807;33;34597;-78
2022/07/29 04:59:20;;;;;;;7.57;4.00;;;;;;;24.31;49.71;99722.06;4243024;33;35937;-78
2022/07/29 05:02:07;;;;;;;6.82;4.05;;;;;;;24.57;49.92;99721.63;4244101;33;34783;-77
2022/07/29 05:04:53;;;;;;;8.82;4.50;;;;;;;24.61;49.81;99722.41;4244298;33;34195;-78
2022/07/29 05:07:40;;;;;;;6.45;4.28;;;;;;;24.34;50.30;99724.84;4244616;33;35659;-85
2022/07/29 05:10:26;;;;;;;9.52;4.62;;;;;;;24.30;50.89;99728.84;4241875;33;35900;-82
2022/07/29 05:13:13;;;;;;;10.90;4.72;;;;;;;24.78;48.25;99740.38;4239346;33;34604;-82
2022/07/29 05:15:59;;;;;;;6.57;4.50;;;;;;;24.75;48.33;99737.59;4240651;33;34384;-82
2022/07/29 05:18:46;;;;;;;9.70;4.95;;;;;;;24.92;48.46;99726.31;4241355;33;34116;-81
2022/07/29 05:21:32;;;;;;;8.10;4.43;;;;;;;25.10;48.21;99723.44;4240225;33;34850;-82
2022/07/29 05:24:18;;;;;;;11.35;4.55;;;;;;;25.26;46.76;99730.59;4245490;33;35532;-81
2022/07/29 05:27:05;;;;;;;6.40;4.40;;;;;;;24.92;48.29;99733.94;4245531;33;34262;-82
2022/07/29 05:29:51;;;;;;;7.03;4.75;;;;;;;24.77;47.83;99729.59;4245910;33;34692;-82
2022/07/29 05:32:38;;;;;;;6.93;4.43;;;;;;;25.20;47.11;99723.84;4242708;33;35064;-82
2022/07/29 05:35:24;;;;;;;7.45;4.80;;;;;;;25.22;46.19;99729.84;4239388;33;34624;-81
2022/07/29 05:38:10;;;;;;;6.43;4.90;;;;;;;25.47;45.90;99722.09;4239080;33;33758;-82
2022/07/29 05:40:58;;;;;;;7.85;4.80;;;;;;;25.20;46.49;99732.25;4237740;33;34220;-81
2022/07/29 05:43:45;;;;;;;10.63;5.22;;;;;;;25.50;46.11;99724.06;4238801;33;35035;-82
2022/07/29 05:46:31;;;;;;;9.02;5.00;;;;;;;25.22;45.82;99739.03;4238641;33;35734;-78
2022/07/29 05:49:18;;;;;;;7.90;5.10;;;;;;;25.60;45.03;99732.81;4236192;33;34201;-80
2022/07/29 05:52:13;;;;;;;7.47;5.22;;;;;;;25.36;45.50;99732.56;4238148;33;34277;-81
2022/07/29 05:55:02;;;;;;;8.43;5.20;;;;;;;25.75;45.22;99742.72;4236227;33;35133;-81
2022/07/29 05:57:48;;;;;;;7.70;5.22;;;;;;;25.66;45.17;99739.59;4237214;33;34560;-81
2022/07/29 06:00:35;;;;;;;10.98;5.00;;;;;;;25.82;44.69;99737.06;4223625;33;32925;-82
2022/07/29 06:03:21;;;;;;;6.78;5.07;;;;;;;25.62;45.33;99744.44;4239034;33;34825;-80
2022/07/29 06:06:07;;;;;;;8.98;5.65;;;;;;;25.70;45.34;99749.59;4237613;33;35599;-81
2022/07/29 06:08:54;;;;;;;8.93;5.10;;;;;;;25.95;44.98;99748.63;4242228;33;34892;-79
2022/07/29 06:11:40;;;;;;;7.47;5.28;;;;;;;25.62;45.65;99745.22;4228452;33;34350;-84
2022/07/29 06:14:28;;;;;;;7.47;5.18;;;;;;;25.73;45.66;99747.97;4229521;33;34519;-80
2022/07/29 06:17:16;;;;;;;7.97;4.85;;;;;;;25.75;45.58;99745.53;4243164;33;35038;-80
2022/07/29 06:20:03;;;;;;;7.65;5.03;;;;;;;26.15;44.84;99743.25;4241021;33;34196;-82
2022/07/29 06:22:49;;;;;;;9.02;5.10;;;;;;;26.17;44.44;99750.03;4230567;33;34972;-81
2022/07/29 06:25:36;;;;;;;11.80;5.43;;;;;;;26.12;45.17;99756.09;4231878;33;34711;-81
2022/07/29 06:28:22;;;;;;;9.02;5.57;;;;;;;25.90;44.47;99749.87;4242066;33;34925;-81
2022/07/29 06:31:09;;;;;;;10.43;5.05;;;;;;;26.53;43.70;99752.56;4241056;33;34924;-82
2022/07/29 06:33:55;;;;;;;6.47;5.37;;;;;;;26.59;44.75;99750.88;4242495;33;35092;-80
2022/07/29 06:36:42;;;;;;;6.25;5.22;;;;;;;26.47;44.36;99748.59;4246010;33;35039;-80
2022/07/29 06:39:28;;;;;;;8.75;6.10;;;;;;;26.72;43.66;99751.13;4250211;33;34958;-80
2022/07/29 06:42:15;;;;;;;7.93;5.32;;;;;;;26.85;43.25;99757.03;4247188;33;34794;-80
2022/07/29 06:45:01;;;;;;;9.85;5.78;;;;;;;26.63;44.20;99773.31;4242570;33;33799;-80
2022/07/29 06:47:54;;;;;;;10.13;5.40;;;;;;;26.63;43.21;99767.69;4246042;33;34656;-80
2022/07/29 06:50:40;;;;;;;9.38;5.65;;;;;;;26.83;43.90;99765.09;4245585;33;36068;-80
2022/07/29 06:53:27;;;;;;;10.27;5.93;;;;;;;26.95;42.90;99766.53;4243706;33;35512;-80
2022/07/29 06:56:13;;;;;;;10.25;5.75;;;;;;;27.18;42.95;99763.09;4240258;33;34154;-81
2022/07/29 06:59:00;;;;;;;9.82;5.60;;;;;;;26.97;43.95;99764.13;4243956;33;34703;-81
2022/07/29 07:01:46;;;;;;;9.82;5.45;;;;;;;27.17;42.85;99761.50;4240995;33;35689;-80
2022/07/29 07:04:33;;;;;;;10.00;5.72;;;;;;;27.51;41.62;99762.25;4241095;33;34890;-81
2022/07/29 07:07:19;;;;;;;12.35;6.07;;;;;;;26.75;43.62;99764.34;4244070;33;34456;-77
2022/07/29 07:10:06;;;;;;;14.18;5.80;;;;;;;27.44;41.58;99761.56;4246239;33;35741;-81
2022/07/29 07:12:52;;;;;;;8.18;5.57;;;;;;;27.40;41.97;99763.59;4241494;33;35057;-82
2022/07/29 07:15:38;;;;;;;9.23;5.82;;;;;;;27.74;41.13;99755.88;4240391;33;34664;-82
2022/07/29 07:18:25;;;;;;;7.53;5.70;;;;;;;27.60;41.75;99761.72;4241655;33;34821;-81
2022/07/29 07:21:12;;;;;;;10.05;5.90;;;;;;;27.77;41.93;99763.47;4242029;33;35288;-81
2022/07/29 07:24:04;;;;;;;14.00;6.35;;;;;;;27.49;41.35;99763.88;4243134;33;35308;-81
2022/07/29 07:26:51;;;;;;;9.27;5.40;;;;;;;27.93;40.36;99756.44;4242315;33;35179;-79
2022/07/29 07:29:40;;;;;;;9.18;5.60;;;;;;;27.37;42.71;99760.41;4239430;33;34653;-79
2022/07/29 07:32:29;;;;;;;9.88;5.80;;;;;;;27.90;41.97;99757.28;4239355;33;34654;-81
2022/07/29 07:35:16;;;;;;;8.82;5.97;;;;;;;28.36;40.10;99759.31;4246803;33;34977;-78
2022/07/29 07:38:02;;;;;;;11.35;5.70;;;;;;;27.72;41.61;99755.53;4237823;33;35593;-80
2022/07/29 07:40:48;;;;;;;6.75;5.40;;;;;;;28.21;40.11;99752.34;4248082;33;34142;-79
2022/07/29 07:43:34;;;;;;;10.77;6.12;;;;;;;28.69;39.77;99751.91;4247579;33;33764;-79
2022/07/29 07:46:21;;;;;;;11.40;6.07;;;;;;;28.29;40.77;99755.81;4249442;33;35201;-79
2022/07/29 07:49:07;;;;;;;7.55;6.10;;;;;;;28.60;40.59;99754.47;4246463;33;34805;-80
2022/07/29 07:51:53;;;;;;;10.38;6.37;;;;;;;29.04;38.80;99754.47;4244175;33;34160;-80
2022/07/29 07:54:40;;;;;;;8.07;6.15;;;;;;;28.90;38.81;99749.91;4241302;33;34707;-80
2022/07/29 07:57:26;;;;;;;8.35;5.82;;;;;;;29.05;38.79;99751.22;4240007;33;34627;-81
2022/07/29 08:00:15;;;;;;;12.75;6.50;;;;;;;29.29;38.72;99751.94;4242368;33;35854;-81
2022/07/29 08:03:02;;;;;;;11.80;6.12;;;;;;;28.92;38.33;99747.44;4240270;33;34012;-81
2022/07/29 08:06:03;;;;;;;11.90;6.43;;;;;;;28.87;38.47;99740.28;4236417;33;34235;-81
2022/07/29 08:08:49;;;;;;;10.35;6.78;;;;;;;29.27;37.63;99756.41;4238816;33;35918;-82
2022/07/29 08:11:36;;;;;;;9.27;6.57;;;;;;;28.76;39.71;99739.69;4245201;33;34586;-83
2022/07/29 08:14:37;;;;;;;10.55;6.40;;;;;;;29.34;38.66;99739.31;4248036;33;34177;-86
2022/07/29 08:17:23;;;;;;;9.15;6.07;;;;;;;29.38;38.27;99745.69;4228310;33;34658;-83
2022/07/29 08:20:10;;;;;;;10.75;6.45;;;;;;;30.10;37.33;99749.69;4248713;33;35044;-83
2022/07/29 08:22:56;;;;;;;8.02;6.20;;;;;;;29.65;37.19;99741.87;4244415;33;35633;-80
2022/07/29 08:25:42;;;;;;;10.50;6.45;;;;;;;30.26;36.28;99746.88;4247425;33;35049;-77
2022/07/29 08:28:28;;;;;;;8.13;6.25;;;;;;;30.36;35.81;99742.19;4247734;33;34606;-80
2022/07/29 08:31:15;;;;;;;10.43;5.90;;;;;;;30.63;36.06;99741.87;4247052;33;35043;-77
2022/07/29 08:34:02;;;;;;;8.88;6.03;;;;;;;30.49;36.42;99743.03;4247567;33;33505;-77
2022/07/29 08:36:49;;;;;;;9.68;6.47;;;;;;;30.56;35.05;99725.88;4248073;33;34265;-79
2022/07/29 08:39:36;;;;;;;10.13;6.22;;;;;;;30.61;35.70;99741.50;4247617;33;34832;-79
2022/07/29 08:42:22;;;;;;;8.85;5.85;;;;;;;30.63;35.08;99736.22;4246756;33;34966;-80
2022/07/29 08:45:08;;;;;;;7.60;6.03;;;;;;;30.54;34.83;99744.53;4237053;33;35509;-82
2022/07/29 08:47:55;;;;;;;8.75;6.57;;;;;;;30.99;35.37;99738.03;4247417;33;34219;-78
2022/07/29 08:50:42;;;;;;;9.63;6.00;;;;;;;31.20;34.01;99733.81;4246407;33;34595;-78
2022/07/29 08:53:31;;;;;;;8.30;6.40;;;;;;;31.18;34.97;99730.62;4238410;33;35242;-81
2022/07/29 08:56:19;;;;;;;8.95;5.68;;;;;;;31.33;33.71;99731.78;4246458;33;35754;-83
2022/07/29 08:59:05;;;;;;;15.90;6.82;;;;;;;30.41;33.66;99736.00;4247839;33;34397;-80
2022/07/29 09:01:54;;;;;;;9.13;6.55;;;;;;;31.18;33.72;99722.12;4247408;33;35592;-79
2022/07/29 09:04:41;;;;;;;10.02;5.95;;;;;;;31.70;33.03;99723.78;4235790;33;35008;-79
2022/07/29 09:07:27;;;;;;;9.68;6.03;;;;;;;32.15;32.38;99729.19;4246226;33;34635;-78
2022/07/29 09:10:19;;;;;;;11.82;6.15;;;;;;;32.40;31.64;99728.31;4243164;33;34152;-79
2022/07/29 09:13:06;;;;;;;8.98;5.75;;;;;;;32.33;30.79;99720.06;4244786;33;34688;-83
2022/07/29 09:15:52;;;;;;;8.85;5.62;;;;;;;32.64;30.19;99723.03;4229329;33;34930;-82
2022/07/29 09:18:42;;;;;;;9.50;6.00;;;;;;;31.74;31.18;99728.09;4230002;33;34570;-80
2022/07/29 09:21:58;;;;;;;11.02;5.87;;;;;;;32.53;31.06;99716.16;4239447;33;34063;-80
2022/07/29 09:24:47;;;;;;;7.90;5.22;;;;;;;32.32;30.97;99712.03;4239375;33;34121;-80
2022/07/29 09:27:34;;;;;;;10.27;5.60;;;;;;;32.58;30.58;99712.75;4228719;33;34200;-81
2022/07/29 09:30:22;;;;;;;11.95;5.53;;;;;;;32.79;29.78;99711.16;4243233;33;34697;-85
2022/07/29 09:33:17;;;;;;;11.32;5.78;;;;;;;32.96;29.45;99706.91;4242381;33;34378;-85
2022/07/29 09:36:08;;;;;;;10.18;5.60;;;;;;;32.92;29.44;99704.16;4241237;33;35539;-82
2022/07/29 09:39:03;;;;;;;8.25;5.50;;;;;;;32.90;31.52;99705.88;4240223;33;36281;-79
2022/07/29 09:41:54;;;;;;;9.65;6.12;;;;;;;33.87;29.27;99696.44;4246435;33;35430;-80
2022/07/29 09:44:50;;;;;;;9.85;5.15;;;;;;;33.56;28.77;99698.09;4231291;33;34182;-81
2022/07/29 09:47:48;;;;;;;7.40;5.32;;;;;;;34.16;27.68;99696.84;4243908;33;35597;-79
2022/07/29 09:50:36;;;;;;;9.90;5.03;;;;;;;33.42;28.54;99698.66;4247268;33;34441;-80
2022/07/29 09:53:32;;;;;;;8.85;4.85;;;;;;;33.76;27.94;99703.37;4243969;33;35836;-85
2022/07/29 09:56:19;;;;;;;7.70;5.20;;;;;;;34.34;26.63;99687.53;4232353;33;35277;-87
2022/07/29 09:59:06;;;;;;;9.43;5.07;;;;;;;33.93;27.45;99678.31;4239415;33;35254;-85
2022/07/29 10:01:52;;;;;;;10.20;5.28;;;;;;;33.81;27.70;99690.59;4237104;33;34845;-88
2022/07/29 10:04:41;;;;;;;6.70;5.00;;;;;;;34.44;26.47;99685.50;4241516;33;33882;-87
2022/07/29 10:07:43;;;;;;;6.65;5.18;;;;;;;34.24;26.73;99683.91;4229745;33;33694;-84
2022/07/29 10:10:33;;;;;;;8.20;5.00;;;;;;;34.54;26.69;99683.44;4240963;33;34634;-85
2022/07/29 10:13:19;;;;;;;6.15;4.82;;;;;;;34.15;25.62;99678.19;4229950;33;34648;-86
2022/07/29 10:16:06;;;;;;;5.15;4.37;;;;;;;34.77;25.70;99677.09;4240512;33;34448;-84
2022/07/29 10:18:52;;;;;;;6.37;5.15;;;;;;;35.03;25.19;99680.37;4236955;33;33737;-82
2022/07/29 10:21:42;;;;;;;8.20;4.68;;;;;;;34.31;24.94;99674.28;4238801;33;34192;-81
2022/07/29 10:24:30;;;;;;;6.40;4.75;;;;;;;35.29;24.59;99674.31;4229930;33;34998;-81
2022/07/29 10:27:17;;;;;;;8.07;3.83;;;;;;;35.85;24.62;99663.44;4239188;33;36148;-81
2022/07/29 10:30:04;;;;;;;9.15;4.80;;;;;;;35.79;23.97;99669.03;4242375;33;33291;-83
2022/07/29 10:32:55;;;;;;;7.60;4.50;;;;;;;35.05;24.32;99662.81;4238756;33;35413;-82
2022/07/29 10:35:47;;;;;;;;;;;;;;;35.39;23.80;99655.12;4241931;33;36052;-81
2022/07/29 10:38:39;;;;;;;6.65;4.25;;;;;;;35.96;24.09;99658.00;4242416;33;34872;-81
2022/07/29 10:41:47;;;;;;;6.43;4.62;;;;;;;36.12;22.91;99657.59;4245564;33;34465;-83
2022/07/29 10:44:40;;;;;;;7.78;4.82;;;;;;;35.93;22.84;99654.03;4231779;33;34771;-84
2022/07/29 10:47:27;;;;;;;7.05;4.78;;;;;;;35.63;24.78;99641.72;4230464;33;35605;-82
2022/07/29 10:50:13;;;;;;;8.02;4.32;;;;;;;36.43;23.09;99645.75;4232659;33;34567;-84
2022/07/29 10:53:02;;;;;;;6.15;3.78;;;;;;;36.47;23.11;99637.78;4241376;33;34101;-87
2022/07/29 10:55:54;;;;;;;9.57;4.37;;;;;;;36.42;22.33;99638.47;4230400;33;35631;-86
2022/07/29 10:58:41;;;;;;;7.55;4.97;;;;;;;35.99;22.91;99637.06;4245062;33;35036;-85
2022/07/29 11:01:37;;;;;;;4.72;3.95;;;;;;;36.62;21.75;99640.69;4239046;33;35787;-84
2022/07/29 11:04:43;;;;;;;9.63;4.30;;;;;;;36.55;22.26;99640.31;4242189;33;34223;-86
2022/07/29 11:07:30;;;;;;;11.48;4.18;;;;;;;36.33;23.24;99638.56;4241078;33;34121;-86
2022/07/29 11:10:31;;;;;;;4.65;3.90;;;;;;;36.12;21.95;99640.47;4239838;33;36056;-87
2022/07/29 11:13:42;;;;;;;6.25;4.32;;;;;;;36.14;22.68;99635.06;4246154;33;34629;-80
2022/07/29 11:16:59;;;;;;;9.07;4.15;;;;;;;36.52;21.57;99624.09;4242185;33;35111;-81
2022/07/29 11:19:46;;;;;;;8.10;4.22;;;;;;;35.60;22.53;99614.19;4241672;33;35085;-83
2022/07/29 11:22:37;;;;;;;6.37;3.92;;;;;;;34.75;23.92;99619.09;4241605;33;34105;-82
2022/07/29 11:25:32;;;;;;;6.93;4.07;;;;;;;35.54;22.65;99624.66;4241389;33;35129;-81
2022/07/29 11:28:42;;;;;;;8.10;4.37;;;;;;;34.38;24.24;99614.25;4241273;33;33738;-84
2022/07/29 11:31:50;;;;;;;6.55;4.35;;;;;;;35.14;23.82;99611.56;4231971;33;34664;-84
2022/07/29 11:34:40;;;;;;;7.20;4.05;;;;;;;36.10;23.21;99605.16;4230436;33;35028;-82
2022/07/29 11:37:28;;;;;;;8.95;4.50;;;;;;;35.88;23.06;99600.53;4243645;33;35952;-81
2022/07/29 11:40:17;;;;;;;7.32;4.30;;;;;;;36.93;22.16;99602.28;4243496;33;34156;-83
2022/07/29 11:43:03;;;;;;;6.65;3.97;;;;;;;36.80;21.04;99590.37;4242797;33;34638;-82
2022/07/29 11:45:53;;;;;;;7.43;4.12;;;;;;;36.67;21.31;99585.78;4242235;33;35042;-82
2022/07/29 11:48:43;;;;;;;7.75;4.18;;;;;;;37.24;21.08;99598.13;4238500;33;35100;-80
2022/07/29 11:51:31;;;;;;;17.60;4.95;;;;;;;37.10;21.87;99579.75;4239371;33;34842;-80
2022/07/29 11:54:26;;;;;;;11.18;4.90;;;;;;;37.04;21.61;99581.72;4238546;33;34733;-80
2022/07/29 11:57:12;;;;;;;7.03;4.32;;;;;;;36.60;22.39;99586.19;4239260;33;34766;-80
2022/07/29 12:00:03;;;;;;;8.13;4.20;;;;;;;36.39;22.37;99593.81;4240877;33;34696;-81
2022/07/29 12:02:56;;;;;;;4.95;3.92;;;;;;;36.39;22.16;99587.31;4245187;33;35063;-82
2022/07/29 12:05:45;;;;;;;5.77;4.27;;;;;;;35.95;22.38;99583.09;4240566;33;35657;-81
2022/07/29 12:08:52;;;;;;;21.27;5.60;;;;;;;35.35;23.49;99579.19;4239844;33;34900;-80
2022/07/29 12:11:38;;;;;;;6.45;4.70;;;;;;;35.50;23.78;99581.31;4239273;33;35578;-80
2022/07/29 12:14:28;;;;;;;6.20;4.10;;;;;;;36.50;23.17;99584.66;4240351;33;34135;-81
2022/07/29 12:17:31;;;;;;;5.62;4.07;;;;;;;36.58;22.07;99582.25;4240904;33;34577;-82
2022/07/29 12:20:26;;;;;;;7.78;4.07;;;;;;;37.48;21.17;99575.91;4237750;33;35040;-81
2022/07/29 12:23:16;;;;;;;5.70;4.00;;;;;;;37.61;21.11;99578.44;4239921;33;34500;-81
2022/07/29 12:26:05;;;;;;;5.78;3.70;;;;;;;37.63;20.17;99572.19;4229336;33;34212;-80
2022/07/29 12:28:55;;;;;;;6.10;3.92;;;;;;;38.30;19.73;99555.06;4228961;33;35644;-82
2022/07/29 12:31:42;;;;;;;5.60;4.28;;;;;;;37.28;19.50;99547.28;4238011;33;33975;-80
2022/07/29 12:34:30;;;;;;;7.68;3.92;;;;;;;38.74;19.99;99557.59;4229465;33;34618;-80
2022/07/29 12:37:17;;;;;;;15.23;4.22;;;;;;;38.66;20.29;99553.63;4239127;33;33846;-80
2022/07/29 12:40:07;;;;;;;15.88;4.50;;;;;;;39.19;19.38;99537.06;4230077;33;34542;-83
2022/07/29 12:43:12;;;;;;;13.57;4.57;;;;;;;38.15;19.38;99535.94;4228457;33;34944;-82
2022/07/29 12:46:12;;;;;;;16.98;4.10;;;;;;;38.00;20.55;99538.13;4239621;33;34882;-81
2022/07/29 12:48:58;;;;;;;;;;;;;;;39.08;20.53;99532.88;4241217;33;35841;-82
2022/07/29 12:51:44;;;;;;;5.90;4.07;;;;;;;38.91;19.02;99535.63;4239626;33;35767;-81
2022/07/29 12:54:30;;;;;;;9.15;3.97;;;;;;;39.46;18.65;99532.84;4239498;33;34501;-82
2022/07/29 12:57:17;;;;;;;5.82;3.90;;;;;;;38.75;18.82;99524.00;4237770;33;34285;-83
2022/07/29 13:00:10;;;;;;;8.55;4.32;;;;;;;38.46;19.04;99523.78;4240102;33;34142;-82
2022/07/29 13:02:59;;;;;;;5.10;3.80;;;;;;;38.21;19.03;99531.06;4234061;33;34693;-81
2022/07/29 13:05:45;;;;;;;7.20;3.67;;;;;;;37.25;20.46;99520.50;4237712;33;34953;-82
2022/07/29 13:08:34;;;;;;;8.07;4.10;;;;;;;38.37;18.98;99518.22;4240795;33;35203;-81
2022/07/29 13:11:29;;;;;;;5.07;4.10;;;;;;;38.46;19.65;99526.63;4239239;33;34245;-81
2022/07/29 13:14:32;;;;;;;6.15;3.85;;;;;;;38.64;18.91;99513.25;4241170;33;35620;-81
2022/07/29 13:17:22;;;;;;;4.62;3.72;;;;;;;39.08;18.24;99517.72;4239839;33;35001;-82
2022/07/29 13:20:12;;;;;;;6.30;3.90;;;;;;;39.10;19.31;99509.41;4221752;33;34435;-81
2022/07/29 13:23:00;;;;;;;13.77;3.83;;;;;;;39.78;17.36;99501.97;4230526;33;33108;-81